Time;durP1;ratioP1;P1;durP2;ratioP2;P2;SDS_P1;SDS_P2;PMS_P1;PMS_P2;Temp;Humidity;BMP_temperature;BMP_pressure;BME280_temperature;BME280_humidity;BME280_pressure;Samples;Min_cycle;Max_cycle;Signal;HPM_P1;HPM_P2
2023/12/11 00:00:28;;;;;;;0.00;0.00;;;9.40;99.90;;;;;;5095092;28;20207;-67
2023/12/11 00:02:55;;;;;;;0.00;0.00;;;9.40;99.90;;;;;;5102289;28;20210;-68
2023/12/11 00:05:20;;;;;;;0.00;0.00;;;9.40;99.90;;;;;;5109271;28;20506;-68
2023/12/11 00:07:46;;;;;;;0.00;0.00;;;9.40;99.90;;;;;;5105581;28;20188;-68
2023/12/11 00:10:12;;;;;;;0.00;0.00;;;9.40;99.90;;;;;;5098495;28;20597;-68
2023/12/11 00:12:37;;;;;;;0.00;0.00;;;9.50;99.90;;;;;;5108675;28;20175;-68
2023/12/11 00:15:03;;;;;;;0.00;0.00;;;9.50;99.90;;;;;;5107358;28;20295;-68
2023/12/11 00:17:29;;;;;;;0.00;0.00;;;9.50;99.90;;;;;;5094665;28;20349;-68
2023/12/11 00:19:54;;;;;;;0.00;0.00;;;9.50;99.90;;;;;;5094713;28;20201;-68
2023/12/11 00:22:20;;;;;;;0.00;0.00;;;9.50;99.90;;;;;;5094635;28;20635;-69
2023/12/11 00:24:45;;;;;;;0.00;0.00;;;9.60;99.90;;;;;;5094616;28;20636;-69
2023/12/11 00:27:11;;;;;;;0.00;0.00;;;9.60;99.90;;;;;;5094588;28;20184;-69
2023/12/11 00:29:38;;;;;;;0.30;0.30;;;9.60;99.90;;;;;;5094593;28;20192;-69
2023/12/11 00:32:04;;;;;;;0.00;0.00;;;9.60;99.90;;;;;;5094639;28;20180;-69
2023/12/11 00:34:29;;;;;;;0.00;0.00;;;9.60;99.90;;;;;;5094563;28;20176;-69
2023/12/11 00:36:55;;;;;;;0.00;0.00;;;9.60;99.90;;;;;;5094226;28;20227;-68
2023/12/11 00:39:20;;;;;;;0.00;0.00;;;9.60;99.90;;;;;;5096651;28;20176;-69
2023/12/11 00:41:46;;;;;;;0.00;0.00;;;9.60;99.90;;;;;;5109849;28;20179;-69
2023/12/11 00:44:11;;;;;;;0.00;0.00;;;9.60;99.90;;;;;;5112401;28;20175;-70
2023/12/11 00:46:37;;;;;;;0.00;0.00;;;9.70;99.90;;;;;;5096691;28;20168;-69
2023/12/11 00:49:02;;;;;;;0.00;0.00;;;9.70;99.90;;;;;;5103581;28;20627;-68
2023/12/11 00:51:28;;;;;;;0.00;0.00;;;9.70;99.90;;;;;;5100642;28;20172;-68
2023/12/11 00:53:53;;;;;;;0.00;0.00;;;9.70;99.90;;;;;;5106567;28;20207;-68
2023/12/11 00:56:19;;;;;;;0.00;0.00;;;9.70;99.90;;;;;;5094040;28;20688;-68
2023/12/11 00:58:44;;;;;;;0.00;0.00;;;9.70;99.90;;;;;;5094126;28;20173;-68
2023/12/11 01:01:10;;;;;;;0.00;0.00;;;9.70;99.90;;;;;;5092772;28;20184;-69
2023/12/11 01:03:36;;;;;;;0.00;0.00;;;9.70;99.90;;;;;;5095504;28;20172;-68
2023/12/11 01:06:02;;;;;;;0.00;0.00;;;9.70;99.90;;;;;;5108986;28;20179;-68
2023/12/11 01:08:27;;;;;;;0.00;0.00;;;9.80;99.90;;;;;;5094839;28;20187;-69
2023/12/11 01:10:57;;;;;;;0.00;0.00;;;9.80;99.90;;;;;;5110178;28;20175;-68
2023/12/11 01:13:23;;;;;;;0.00;0.00;;;9.80;99.90;;;;;;5105793;28;20176;-68
2023/12/11 01:15:48;;;;;;;0.00;0.00;;;9.80;99.90;;;;;;5109257;28;20255;-69
2023/12/11 01:18:14;;;;;;;0.00;0.00;;;9.80;99.90;;;;;;5110175;28;20254;-69
2023/12/11 01:20:39;;;;;;;0.00;0.00;;;9.80;99.90;;;;;;5093625;28;20204;-68
2023/12/11 01:23:05;;;;;;;0.00;0.00;;;9.70;99.90;;;;;;5093353;28;20247;-68
2023/12/11 01:25:31;;;;;;;0.00;0.00;;;9.70;99.90;;;;;;5092416;28;20187;-68
2023/12/11 01:27:57;;;;;;;0.00;0.00;;;9.70;99.90;;;;;;5093868;28;20188;-69
2023/12/11 01:30:22;;;;;;;0.00;0.00;;;9.70;99.90;;;;;;5113028;28;20206;-68
2023/12/11 01:32:48;;;;;;;0.00;0.00;;;9.70;99.90;;;;;;5098168;28;20179;-69
2023/12/11 01:35:13;;;;;;;0.00;0.00;;;9.60;99.90;;;;;;5093412;28;20219;-68
2023/12/11 01:37:39;;;;;;;0.00;0.00;;;9.60;99.90;;;;;;5093246;28;20289;-69
2023/12/11 01:40:07;;;;;;;0.00;0.00;;;9.60;99.90;;;;;;5100010;28;20190;-69
2023/12/11 01:42:33;;;;;;;0.00;0.00;;;9.60;99.90;;;;;;5100343;28;20215;-69
2023/12/11 01:44:58;;;;;;;0.00;0.00;;;9.50;99.90;;;;;;5093093;28;20655;-68
2023/12/11 01:47:24;;;;;;;0.00;0.00;;;9.50;99.90;;;;;;5093813;28;20175;-68
2023/12/11 01:49:50;;;;;;;0.00;0.00;;;9.50;99.90;;;;;;5091721;28;20188;-68
2023/12/11 01:52:16;;;;;;;0.00;0.00;;;9.50;99.90;;;;;;5092944;28;20211;-67
2023/12/11 01:54:43;;;;;;;0.00;0.00;;;9.50;99.90;;;;;;5095584;28;20175;-68
2023/12/11 01:57:09;;;;;;;0.00;0.00;;;9.50;99.90;;;;;;5104218;28;20233;-69
2023/12/11 01:59:35;;;;;;;0.00;0.00;;;9.50;99.90;;;;;;5105745;28;20176;-68
2023/12/11 02:02:02;;;;;;;0.00;0.00;;;9.50;99.90;;;;;;5105974;28;20175;-68
2023/12/11 02:04:29;;;;;;;0.00;0.00;;;9.50;99.90;;;;;;5095334;28;20236;-69
2023/12/11 02:06:54;;;;;;;0.00;0.00;;;9.50;99.90;;;;;;5093206;28;20253;-67
2023/12/11 02:09:20;;;;;;;0.00;0.00;;;9.60;99.90;;;;;;5093574;28;20630;-68
2023/12/11 02:11:45;;;;;;;0.00;0.00;;;9.60;99.90;;;;;;5098693;28;20176;-67
2023/12/11 02:14:11;;;;;;;0.00;0.00;;;9.60;99.90;;;;;;5108303;28;20222;-68
2023/12/11 02:16:36;;;;;;;0.00;0.00;;;9.60;99.90;;;;;;5102039;28;20563;-68
2023/12/11 02:19:02;;;;;;;0.00;0.00;;;9.60;99.90;;;;;;5098254;28;20657;-68
2023/12/11 02:21:27;;;;;;;0.13;0.13;;;9.60;99.90;;;;;;5092684;28;20517;-68
2023/12/11 02:24:30;;;;;;;0.00;0.00;;;9.50;99.90;;;;;;5097773;28;20254;-67
2023/12/11 02:26:56;;;;;;;0.00;0.00;;;9.50;99.90;;;;;;5059056;28;20184;-68
2023/12/11 02:29:22;;;;;;;0.00;0.00;;;9.50;99.90;;;;;;5099193;28;20538;-68
2023/12/11 02:31:47;;;;;;;0.00;0.00;;;9.50;99.90;;;;;;5099978;28;20173;-69
2023/12/11 02:34:13;;;;;;;0.00;0.00;;;9.50;99.90;;;;;;5097909;28;20581;-69
2023/12/11 02:36:38;;;;;;;0.00;0.00;;;9.50;99.90;;;;;;5097252;28;20825;-69
2023/12/11 02:39:04;;;;;;;0.00;0.00;;;9.40;99.90;;;;;;5100578;28;20183;-68
2023/12/11 02:41:29;;;;;;;0.00;0.00;;;9.40;99.90;;;;;;5102448;28;20192;-67
2023/12/11 02:43:55;;;;;;;0.00;0.00;;;9.40;99.90;;;;;;5102793;28;20175;-69
2023/12/11 02:46:20;;;;;;;0.00;0.00;;;9.40;99.90;;;;;;5092539;28;20542;-68
2023/12/11 02:48:46;;;;;;;0.00;0.00;;;9.40;99.90;;;;;;5108527;28;20179;-68
2023/12/11 02:51:11;;;;;;;0.00;0.00;;;9.40;99.90;;;;;;5091857;28;20176;-68
2023/12/11 02:53:37;;;;;;;0.00;0.00;;;9.40;99.90;;;;;;5100883;28;20180;-68
2023/12/11 02:56:03;;;;;;;0.00;0.00;;;9.40;99.90;;;;;;5103494;28;20206;-69
2023/12/11 02:58:28;;;;;;;0.00;0.00;;;9.50;99.90;;;;;;5097706;28;20600;-68
2023/12/11 03:00:54;;;;;;;0.00;0.00;;;9.50;99.90;;;;;;5106405;28;20574;-68
2023/12/11 03:03:19;;;;;;;0.00;0.00;;;9.50;99.90;;;;;;5094547;28;20383;-68
2023/12/11 03:05:45;;;;;;;0.00;0.00;;;9.60;99.90;;;;;;5109395;28;20179;-68
2023/12/11 03:08:10;;;;;;;0.00;0.00;;;9.70;99.90;;;;;;5098894;28;20624;-68
2023/12/11 03:10:36;;;;;;;0.00;0.00;;;9.70;99.90;;;;;;5104276;28;20175;-69
2023/12/11 03:13:01;;;;;;;0.00;0.00;;;9.70;99.90;;;;;;5111735;28;20186;-68
2023/12/11 03:15:27;;;;;;;0.00;0.00;;;9.80;99.90;;;;;;5103689;28;20208;-68
2023/12/11 03:17:52;;;;;;;0.00;0.00;;;9.70;99.90;;;;;;5090460;28;20212;-68
2023/12/11 03:20:18;;;;;;;0.00;0.00;;;9.80;99.90;;;;;;5091597;28;20184;-68
2023/12/11 03:22:44;;;;;;;0.00;0.00;;;9.80;99.90;;;;;;5091367;28;20187;-68
2023/12/11 03:25:09;;;;;;;0.00;0.00;;;9.80;99.90;;;;;;5091783;28;20176;-68
2023/12/11 03:27:35;;;;;;;0.00;0.00;;;9.80;99.90;;;;;;5091526;28;20180;-68
2023/12/11 03:30:01;;;;;;;0.00;0.00;;;9.90;99.90;;;;;;5093766;28;20530;-68
2023/12/11 03:32:26;;;;;;;0.00;0.00;;;9.90;99.90;;;;;;5095895;28;20184;-68
2023/12/11 03:34:52;;;;;;;0.00;0.00;;;9.90;99.90;;;;;;5110599;28;20653;-68
2023/12/11 03:37:17;;;;;;;0.00;0.00;;;9.90;99.90;;;;;;5104850;28;20237;-68
2023/12/11 03:39:43;;;;;;;0.00;0.00;;;9.90;99.90;;;;;;5099602;28;20176;-68
2023/12/11 03:42:09;;;;;;;0.00;0.00;;;10.00;99.90;;;;;;5107519;28;20260;-68
2023/12/11 03:44:35;;;;;;;0.00;0.00;;;10.00;99.90;;;;;;5099999;28;20674;-68
2023/12/11 03:47:00;;;;;;;0.00;0.00;;;10.00;99.90;;;;;;5106531;28;20179;-69
2023/12/11 03:49:27;;;;;;;0.00;0.00;;;10.00;99.90;;;;;;5113382;28;20586;-68
2023/12/11 03:51:52;;;;;;;0.00;0.00;;;10.00;99.90;;;;;;5115022;28;20179;-69
2023/12/11 03:54:18;;;;;;;0.00;0.00;;;10.00;99.90;;;;;;5106401;28;20176;-69
2023/12/11 03:56:43;;;;;;;0.00;0.00;;;10.00;99.90;;;;;;5107660;28;20293;-68
2023/12/11 03:59:11;;;;;;;0.00;0.00;;;10.00;99.90;;;;;;5099137;28;20704;-68
2023/12/11 04:01:37;;;;;;;0.00;0.00;;;10.00;99.90;;;;;;5099312;28;20206;-69
2023/12/11 04:04:02;;;;;;;0.00;0.00;;;10.00;99.90;;;;;;5108473;28;20203;-69
2023/12/11 04:06:28;;;;;;;0.00;0.00;;;10.00;99.90;;;;;;5101917;28;20214;-69
2023/12/11 04:08:53;;;;;;;0.00;0.00;;;10.00;99.90;;;;;;5098367;28;20573;-69
2023/12/11 04:11:19;;;;;;;0.00;0.00;;;10.00;99.90;;;;;;5111141;28;20709;-69
2023/12/11 04:13:44;;;;;;;0.00;0.00;;;10.00;99.90;;;;;;5114431;28;20674;-69
2023/12/11 04:16:10;;;;;;;0.00;0.00;;;10.00;99.90;;;;;;5101046;28;20568;-68
2023/12/11 04:18:39;;;;;;;0.00;0.00;;;10.00;99.90;;;;;;5094829;28;20176;-68
2023/12/11 04:21:05;;;;;;;0.00;0.00;;;10.00;99.90;;;;;;5094765;28;20644;-68
2023/12/11 04:23:31;;;;;;;0.00;0.00;;;10.10;99.90;;;;;;5094850;28;20191;-66
2023/12/11 04:25:58;;;;;;;0.00;0.00;;;10.10;99.90;;;;;;5094647;28;20184;-71
2023/12/11 04:28:24;;;;;;;0.00;0.00;;;10.10;99.90;;;;;;5094663;28;20526;-73
2023/12/11 04:30:50;;;;;;;0.00;0.00;;;10.10;99.90;;;;;;5102495;28;20180;-71
2023/12/11 04:33:15;;;;;;;0.00;0.00;;;10.10;99.90;;;;;;5107779;28;20406;-72
2023/12/11 04:35:41;;;;;;;0.00;0.00;;;10.40;99.90;;;;;;5096254;28;20212;-73
2023/12/11 04:38:06;;;;;;;0.00;0.00;;;10.40;99.90;;;;;;5107440;28;20222;-70
2023/12/11 04:40:32;;;;;;;0.00;0.00;;;10.40;99.90;;;;;;5113326;27;20226;-71
2023/12/11 04:42:57;;;;;;;0.00;0.00;;;10.40;99.90;;;;;;5102914;28;20179;-70
2023/12/11 04:45:23;;;;;;;0.00;0.00;;;10.40;99.90;;;;;;5109144;28;20221;-66
2023/12/11 04:47:48;;;;;;;0.00;0.00;;;10.30;99.90;;;;;;5097828;28;20623;-72
2023/12/11 04:50:14;;;;;;;0.00;0.00;;;10.30;99.90;;;;;;5109425;28;20198;-70
2023/12/11 04:52:39;;;;;;;0.00;0.00;;;10.40;99.90;;;;;;5105934;28;20183;-69
2023/12/11 04:55:05;;;;;;;0.00;0.00;;;10.40;99.90;;;;;;5112606;28;20264;-70
2023/12/11 04:57:31;;;;;;;0.00;0.00;;;10.40;99.90;;;;;;5103930;28;20184;-69
2023/12/11 04:59:56;;;;;;;0.00;0.00;;;10.40;99.90;;;;;;5094254;28;20659;-70
2023/12/11 05:02:22;;;;;;;0.00;0.00;;;10.40;99.90;;;;;;5095369;28;20168;-72
2023/12/11 05:04:47;;;;;;;0.00;0.00;;;10.50;99.90;;;;;;5094083;28;20184;-66
2023/12/11 05:07:13;;;;;;;0.00;0.00;;;10.50;99.90;;;;;;5103837;28;20176;-67
2023/12/11 05:09:38;;;;;;;0.00;0.00;;;10.50;99.90;;;;;;5098429;28;20208;-67
2023/12/11 05:12:04;;;;;;;0.00;0.00;;;10.50;99.90;;;;;;5093808;28;20164;-67
2023/12/11 05:14:29;;;;;;;0.00;0.00;;;10.60;99.90;;;;;;5095147;28;20452;-68
2023/12/11 05:16:55;;;;;;;0.00;0.00;;;10.60;99.90;;;;;;5107825;28;20706;-67
2023/12/11 05:19:20;;;;;;;0.00;0.00;;;10.60;99.90;;;;;;5113225;28;20186;-67
2023/12/11 05:21:46;;;;;;;0.00;0.00;;;10.60;99.90;;;;;;5114198;28;20254;-68
2023/12/11 05:24:12;;;;;;;0.00;0.00;;;10.70;99.90;;;;;;5113966;28;20664;-68
2023/12/11 05:26:38;;;;;;;0.00;0.00;;;10.70;99.90;;;;;;5112901;28;20176;-68
2023/12/11 05:29:04;;;;;;;0.00;0.00;;;10.70;99.90;;;;;;5114026;28;20222;-68
2023/12/11 05:31:30;;;;;;;0.00;0.00;;;10.70;99.90;;;;;;5114099;28;20175;-67
2023/12/11 05:33:56;;;;;;;0.00;0.00;;;10.80;99.90;;;;;;5113948;28;20186;-68
2023/12/11 05:36:21;;;;;;;0.00;0.00;;;10.80;99.90;;;;;;5111137;28;20223;-68
2023/12/11 05:38:47;;;;;;;0.00;0.00;;;10.80;99.90;;;;;;5093299;28;20195;-67
2023/12/11 05:41:12;;;;;;;0.05;0.05;;;10.70;99.90;;;;;;5093468;28;20191;-68
2023/12/11 05:43:38;;;;;;;0.00;0.00;;;10.70;99.90;;;;;;5093452;28;20679;-68
2023/12/11 05:46:04;;;;;;;0.00;0.00;;;10.70;99.90;;;;;;5110571;28;20643;-68
2023/12/11 05:48:29;;;;;;;0.00;0.00;;;10.70;99.90;;;;;;5113641;28;20229;-69
2023/12/11 05:50:55;;;;;;;0.00;0.00;;;10.60;99.90;;;;;;5112270;28;20236;-67
2023/12/11 05:53:20;;;;;;;0.00;0.00;;;10.50;99.90;;;;;;5112717;28;20178;-67
2023/12/11 05:55:46;;;;;;;0.00;0.00;;;10.50;99.90;;;;;;5113352;28;20207;-67
2023/12/11 05:58:11;;;;;;;0.00;0.00;;;10.50;99.90;;;;;;5113400;28;20199;-68
2023/12/11 06:00:37;;;;;;;0.00;0.00;;;10.40;99.90;;;;;;5113391;28;20639;-67
2023/12/11 06:03:02;;;;;;;0.00;0.00;;;10.40;99.90;;;;;;5113364;28;20183;-67
2023/12/11 06:05:28;;;;;;;0.00;0.00;;;10.40;99.90;;;;;;5113422;28;20186;-68
2023/12/11 06:07:53;;;;;;;0.00;0.00;;;10.40;99.90;;;;;;5097668;28;20569;-67
2023/12/11 06:10:19;;;;;;;0.00;0.00;;;10.40;99.90;;;;;;5092956;28;20623;-67
2023/12/11 06:12:44;;;;;;;0.00;0.00;;;10.30;99.90;;;;;;5093133;28;20180;-67
2023/12/11 06:15:11;;;;;;;0.00;0.00;;;10.40;99.90;;;;;;5095621;28;20230;-67
2023/12/11 06:17:36;;;;;;;0.00;0.00;;;10.30;99.90;;;;;;5092691;28;20703;-67
2023/12/11 06:20:03;;;;;;;0.00;0.00;;;10.40;99.90;;;;;;5091298;28;20321;-67
2023/12/11 06:22:29;;;;;;;0.00;0.00;;;10.30;99.90;;;;;;5112693;28;20175;-67
2023/12/11 06:24:54;;;;;;;0.00;0.00;;;10.40;99.90;;;;;;5112618;28;20677;-67
2023/12/11 06:27:22;;;;;;;0.00;0.00;;;10.30;99.90;;;;;;5112717;28;20643;-67
2023/12/11 06:29:48;;;;;;;0.00;0.00;;;10.30;99.90;;;;;;5111416;28;20172;-67
2023/12/11 06:32:13;;;;;;;0.00;0.00;;;10.30;99.90;;;;;;5106010;28;20183;-66
2023/12/11 06:34:39;;;;;;;0.00;0.00;;;10.30;99.90;;;;;;5092294;28;20184;-66
2023/12/11 06:37:05;;;;;;;0.00;0.00;;;10.30;99.90;;;;;;5092359;28;20242;-67
2023/12/11 06:39:31;;;;;;;0.00;0.00;;;10.30;99.90;;;;;;5093170;28;20263;-68
2023/12/11 06:41:57;;;;;;;0.00;0.00;;;10.30;99.90;;;;;;5105805;28;20180;-68
2023/12/11 06:44:22;;;;;;;0.00;0.00;;;10.30;99.90;;;;;;5100547;28;20182;-68
2023/12/11 06:46:48;;;;;;;0.00;0.00;;;10.30;99.90;;;;;;5099600;28;20176;-66
2023/12/11 06:49:13;;;;;;;0.00;0.00;;;10.30;99.90;;;;;;5112355;28;20324;-67
2023/12/11 06:51:39;;;;;;;0.00;0.00;;;10.30;99.90;;;;;;5112743;28;20638;-66
2023/12/11 06:54:04;;;;;;;0.00;0.00;;;10.40;99.90;;;;;;5112627;28;20638;-66
2023/12/11 06:56:33;;;;;;;0.00;0.00;;;10.40;99.90;;;;;;5112576;28;20230;-66
2023/12/11 06:58:59;;;;;;;0.00;0.00;;;10.50;99.90;;;;;;5112494;28;20262;-66
2023/12/11 07:01:31;;;;;;;0.00;0.00;;;10.60;99.90;;;;;;5112573;28;20250;-66
2023/12/11 07:03:57;;;;;;;0.00;0.00;;;10.60;99.90;;;;;;5112244;28;20638;-66
2023/12/11 07:06:23;;;;;;;0.00;0.00;;;10.70;99.90;;;;;;5112451;28;20175;-67
2023/12/11 07:08:49;;;;;;;0.00;0.00;;;10.70;99.90;;;;;;5112348;28;20164;-67
2023/12/11 07:11:15;;;;;;;0.00;0.00;;;10.80;99.90;;;;;;5112229;28;20187;-67
2023/12/11 07:13:42;;;;;;;0.00;0.00;;;10.80;99.90;;;;;;5112308;28;20179;-67
2023/12/11 07:16:08;;;;;;;0.00;0.00;;;10.90;99.90;;;;;;5112177;28;20207;-67
2023/12/11 07:18:33;;;;;;;0.00;0.00;;;10.90;99.90;;;;;;5112164;28;20637;-66
2023/12/11 07:20:59;;;;;;;0.30;0.30;;;10.90;99.90;;;;;;5112167;28;20261;-67
2023/12/11 07:23:25;;;;;;;0.00;0.00;;;10.90;99.90;;;;;;5112257;28;20177;-67
2023/12/11 07:25:50;;;;;;;0.00;0.00;;;10.90;99.90;;;;;;5112124;28;20210;-66
2023/12/11 07:28:16;;;;;;;0.00;0.00;;;10.80;99.90;;;;;;5112151;28;20251;-67
2023/12/11 07:30:41;;;;;;;0.00;0.00;;;10.80;99.90;;;;;;5112156;28;20508;-67
2023/12/11 07:33:08;;;;;;;0.00;0.00;;;10.80;99.90;;;;;;5112064;28;20627;-67
2023/12/11 07:35:35;;;;;;;0.00;0.00;;;10.80;99.90;;;;;;5111975;28;20223;-66
2023/12/11 07:38:01;;;;;;;0.00;0.00;;;10.90;99.90;;;;;;5111880;28;20239;-66
2023/12/11 07:40:27;;;;;;;0.00;0.00;;;10.80;99.90;;;;;;5112134;28;20587;-66
2023/12/11 07:42:52;;;;;;;0.00;0.00;;;10.90;99.90;;;;;;5112037;28;20199;-66
2023/12/11 07:45:18;;;;;;;0.00;0.00;;;10.90;99.90;;;;;;5112003;28;20647;-67
2023/12/11 07:47:43;;;;;;;0.00;0.00;;;11.00;99.90;;;;;;5112267;28;20201;-65
2023/12/11 07:50:09;;;;;;;0.00;0.00;;;11.00;99.90;;;;;;5111950;28;20614;-66
2023/12/11 07:52:35;;;;;;;0.00;0.00;;;11.00;99.90;;;;;;5112220;28;20186;-66
2023/12/11 07:55:00;;;;;;;0.00;0.00;;;11.00;99.90;;;;;;5111800;28;20215;-66
2023/12/11 07:57:26;;;;;;;0.00;0.00;;;11.00;99.90;;;;;;5111901;28;20187;-67
2023/12/11 07:59:52;;;;;;;0.00;0.00;;;11.00;99.90;;;;;;5111738;28;20627;-66
2023/12/11 08:02:18;;;;;;;0.00;0.00;;;11.00;99.90;;;;;;5111900;28;20780;-66
2023/12/11 08:04:44;;;;;;;0.00;0.00;;;11.10;99.90;;;;;;5111941;28;20258;-67
2023/12/11 08:07:10;;;;;;;0.00;0.00;;;11.10;99.90;;;;;;5111772;28;20175;-67
2023/12/11 08:09:36;;;;;;;0.00;0.00;;;11.20;99.90;;;;;;5111990;28;20539;-66
2023/12/11 08:12:02;;;;;;;0.00;0.00;;;11.20;99.90;;;;;;5111841;28;20183;-66
2023/12/11 08:14:28;;;;;;;0.00;0.00;;;11.30;99.90;;;;;;5112188;28;20215;-66
2023/12/11 08:16:53;;;;;;;0.00;0.00;;;11.30;99.90;;;;;;5115087;28;20280;-66
2023/12/11 08:19:19;;;;;;;0.00;0.00;;;11.30;99.90;;;;;;5115567;28;20646;-66
2023/12/11 08:21:44;;;;;;;0.00;0.00;;;11.30;99.90;;;;;;5115628;28;20188;-66
2023/12/11 08:24:10;;;;;;;0.00;0.00;;;11.30;99.90;;;;;;5114185;28;20187;-67
2023/12/11 08:26:36;;;;;;;0.00;0.00;;;11.30;99.90;;;;;;5115534;28;20164;-66
2023/12/11 08:29:01;;;;;;;0.00;0.00;;;11.30;99.90;;;;;;5114074;28;20180;-66
2023/12/11 08:31:27;;;;;;;0.00;0.00;;;11.30;99.90;;;;;;5114219;28;20194;-66
2023/12/11 08:33:53;;;;;;;0.00;0.00;;;11.40;99.90;;;;;;5114089;28;20609;-66
2023/12/11 08:36:18;;;;;;;0.00;0.00;;;11.40;99.90;;;;;;5113824;28;20322;-66
2023/12/11 08:38:44;;;;;;;0.00;0.00;;;11.40;99.90;;;;;;5115359;28;20275;-66
2023/12/11 08:41:10;;;;;;;0.00;0.00;;;11.50;99.90;;;;;;5115168;28;20178;-66
2023/12/11 08:43:36;;;;;;;0.00;0.00;;;11.60;99.90;;;;;;5115179;28;20167;-65
2023/12/11 08:46:02;;;;;;;0.00;0.00;;;11.60;99.90;;;;;;5115086;28;20178;-66
2023/12/11 08:48:27;;;;;;;0.00;0.00;;;11.60;99.90;;;;;;5113815;28;20171;-66
2023/12/11 08:50:53;;;;;;;0.00;0.00;;;11.60;99.90;;;;;;5115204;28;20697;-66
2023/12/11 08:53:20;;;;;;;0.00;0.00;;;11.70;99.90;;;;;;5115066;28;20669;-66
2023/12/11 08:55:46;;;;;;;0.00;0.00;;;11.70;99.90;;;;;;5114911;28;20298;-67
2023/12/11 08:58:11;;;;;;;0.00;0.00;;;11.80;99.90;;;;;;5114913;28;20207;-66
2023/12/11 09:00:37;;;;;;;0.00;0.00;;;11.80;99.90;;;;;;5114934;28;20172;-67
2023/12/11 09:03:02;;;;;;;0.00;0.00;;;11.80;99.90;;;;;;5114821;28;20167;-66
2023/12/11 09:05:28;;;;;;;0.00;0.00;;;11.80;99.90;;;;;;5114834;28;20657;-67
2023/12/11 09:07:55;;;;;;;0.00;0.00;;;11.90;99.90;;;;;;5114582;28;20229;-67
2023/12/11 09:10:21;;;;;;;0.10;0.10;;;11.90;99.90;;;;;;5114787;28;20186;-67
2023/12/11 09:12:46;;;;;;;0.00;0.00;;;11.90;99.90;;;;;;5114699;28;20167;-68
2023/12/11 09:15:12;;;;;;;0.00;0.00;;;11.90;99.90;;;;;;5114313;28;20197;-66
2023/12/11 09:17:38;;;;;;;0.00;0.00;;;12.00;99.90;;;;;;5114578;28;20201;-66
2023/12/11 09:20:06;;;;;;;0.00;0.00;;;12.00;99.90;;;;;;5114388;28;20203;-66
2023/12/11 09:22:31;;;;;;;0.00;0.00;;;12.00;99.90;;;;;;5112731;28;20530;-67
2023/12/11 09:24:57;;;;;;;0.00;0.00;;;12.00;99.90;;;;;;5114369;28;20217;-67
2023/12/11 09:27:22;;;;;;;0.00;0.00;;;12.00;99.90;;;;;;5113033;28;20171;-67
2023/12/11 09:29:48;;;;;;;0.00;0.00;;;12.00;99.90;;;;;;5114287;28;20182;-67
2023/12/11 09:32:15;;;;;;;0.00;0.00;;;12.00;99.90;;;;;;5112971;28;20179;-67
2023/12/11 09:34:41;;;;;;;0.05;0.05;;;12.10;99.90;;;;;;5114268;28;20190;-66
2023/12/11 09:37:06;;;;;;;0.00;0.00;;;12.20;99.90;;;;;;5113855;28;20227;-66
2023/12/11 09:39:32;;;;;;;0.00;0.00;;;12.30;99.90;;;;;;5114093;28;20180;-66
2023/12/11 09:41:58;;;;;;;0.00;0.00;;;12.50;99.90;;;;;;5113856;28;20545;-67
2023/12/11 09:44:24;;;;;;;0.00;0.00;;;12.60;99.90;;;;;;5113839;28;20539;-67
2023/12/11 09:46:54;;;;;;;0.00;0.00;;;12.60;99.90;;;;;;5113907;28;20176;-67
2023/12/11 09:49:20;;;;;;;0.00;0.00;;;12.60;99.90;;;;;;5113877;28;20176;-67
2023/12/11 09:51:46;;;;;;;0.00;0.00;;;12.60;99.90;;;;;;5113946;28;20225;-66
2023/12/11 09:54:12;;;;;;;0.00;0.00;;;12.60;99.90;;;;;;5113696;28;20183;-66
2023/12/11 09:56:39;;;;;;;0.00;0.00;;;12.50;99.90;;;;;;5113710;28;20211;-66
2023/12/11 09:59:04;;;;;;;0.00;0.00;;;12.50;99.90;;;;;;5113837;28;20175;-67
2023/12/11 10:01:31;;;;;;;0.00;0.00;;;12.70;99.90;;;;;;5113742;28;20649;-67
2023/12/11 10:03:57;;;;;;;0.00;0.00;;;12.90;99.90;;;;;;5113600;28;20673;-67
2023/12/11 10:06:23;;;;;;;0.00;0.00;;;13.10;99.90;;;;;;5113714;28;20210;-67
2023/12/11 10:08:52;;;;;;;0.00;0.00;;;13.40;99.90;;;;;;5113443;28;20207;-67
2023/12/11 10:11:19;;;;;;;0.00;0.00;;;13.50;99.90;;;;;;5113563;28;20195;-66
2023/12/11 10:13:45;;;;;;;0.00;0.00;;;13.60;99.90;;;;;;5113496;28;20183;-67
2023/12/11 10:16:30;;;;;;;0.00;0.00;;;13.70;99.90;;;;;;5113356;28;20219;-67
2023/12/11 10:18:56;;;;;;;0.00;0.00;;;13.60;99.90;;;;;;5113476;28;20181;-67
2023/12/11 10:21:26;;;;;;;0.00;0.00;;;13.60;99.90;;;;;;5113538;28;20672;-67
2023/12/11 10:24:04;;;;;;;0.00;0.00;;;13.60;99.90;;;;;;5111758;28;20605;-67
2023/12/11 10:26:51;;;;;;;0.00;0.00;;;13.50;99.90;;;;;;5113172;27;20174;-67
2023/12/11 10:29:22;;;;;;;0.00;0.00;;;13.30;99.90;;;;;;5098404;28;20182;-68
2023/12/11 10:31:48;;;;;;;0.00;0.00;;;13.10;99.90;;;;;;5113099;27;20192;-67
2023/12/11 10:34:14;;;;;;;0.00;0.00;;;12.90;99.90;;;;;;5112943;27;20639;-67
2023/12/11 10:36:52;;;;;;;0.00;0.00;;;12.70;99.90;;;;;;5112510;28;20285;-67
2023/12/11 10:39:22;;;;;;;0.00;0.00;;;12.60;99.90;;;;;;5111359;28;20168;-67
2023/12/11 10:41:48;;;;;;;0.00;0.00;;;12.50;99.90;;;;;;5112807;28;20659;-67
2023/12/11 10:44:25;;;;;;;0.00;0.00;;;12.40;99.90;;;;;;5112642;28;20183;-67
2023/12/11 10:46:54;;;;;;;0.00;0.00;;;12.40;99.90;;;;;;5112708;28;20213;-67
2023/12/11 10:49:22;;;;;;;0.00;0.00;;;12.40;99.90;;;;;;5112448;28;20642;-67
2023/12/11 10:51:48;;;;;;;0.00;0.00;;;12.40;99.90;;;;;;5112573;28;20179;-67
2023/12/11 10:54:13;;;;;;;0.00;0.00;;;12.40;99.90;;;;;;5112469;28;20179;-67
2023/12/11 10:56:45;;;;;;;0.00;0.00;;;12.30;99.90;;;;;;5111149;28;20253;-66
2023/12/11 10:59:11;;;;;;;0.00;0.00;;;12.30;99.90;;;;;;5112520;28;20175;-67
2023/12/11 11:01:41;;;;;;;0.00;0.00;;;12.30;99.90;;;;;;5112570;28;20224;-67
2023/12/11 11:04:09;;;;;;;0.00;0.00;;;12.30;99.90;;;;;;5112382;28;20514;-67
2023/12/11 11:06:42;;;;;;;0.00;0.00;;;12.20;99.90;;;;;;5112497;28;20646;-67
2023/12/11 11:09:13;;;;;;;0.00;0.00;;;12.10;99.90;;;;;;5111207;28;20193;-67
2023/12/11 11:11:46;;;;;;;0.00;0.00;;;12.10;99.90;;;;;;5112491;28;20183;-67
2023/12/11 11:14:41;;;;;;;0.00;0.00;;;12.10;99.90;;;;;;5112222;28;20179;-67
2023/12/11 11:17:09;;;;;;;0.00;0.00;;;12.00;99.90;;;;;;5112197;28;20252;-66
2023/12/11 11:19:35;;;;;;;0.00;0.00;;;11.90;99.90;;;;;;5112223;28;20175;-66
2023/12/11 11:22:04;;;;;;;0.00;0.00;;;11.90;99.90;;;;;;5112251;28;20179;-66
2023/12/11 11:24:30;;;;;;;0.00;0.00;;;11.80;99.90;;;;;;5112334;28;20194;-66
2023/12/11 11:26:57;;;;;;;0.00;0.00;;;11.80;99.90;;;;;;5110914;28;20752;-66
2023/12/11 11:29:39;;;;;;;0.00;0.00;;;11.80;99.90;;;;;;5110927;28;20197;-66
2023/12/11 11:32:05;;;;;;;0.00;0.00;;;11.90;99.90;;;;;;5112150;28;20538;-67
2023/12/11 11:34:43;;;;;;;0.00;0.00;;;11.90;99.90;;;;;;5112284;28;20178;-66
2023/12/11 11:37:20;;;;;;;0.00;0.00;;;11.90;99.90;;;;;;5111724;28;20226;-67
2023/12/11 11:39:58;;;;;;;0.00;0.00;;;11.90;99.90;;;;;;5110800;28;20190;-66
2023/12/11 11:42:24;;;;;;;0.00;0.00;;;11.90;99.90;;;;;;5112140;28;20174;-66
2023/12/11 11:44:56;;;;;;;0.00;0.00;;;11.90;99.90;;;;;;5112153;28;20270;-67
2023/12/11 11:47:21;;;;;;;0.00;0.00;;;11.80;99.90;;;;;;5111950;28;20643;-66
2023/12/11 11:49:47;;;;;;;0.00;0.00;;;11.80;99.90;;;;;;5112218;28;20178;-65
2023/12/11 11:52:14;;;;;;;0.00;0.00;;;11.80;99.90;;;;;;5115935;28;20175;-66
2023/12/11 11:54:40;;;;;;;0.10;0.10;;;11.80;99.90;;;;;;5116090;28;20176;-66
2023/12/11 11:57:09;;;;;;;0.00;0.00;;;11.70;99.90;;;;;;5115803;28;20682;-66
2023/12/11 11:59:44;;;;;;;0.00;0.00;;;11.70;99.90;;;;;;5115926;28;20631;-66
2023/12/11 12:02:09;;;;;;;0.00;0.00;;;11.70;99.90;;;;;;5115901;28;20191;-66
2023/12/11 12:04:35;;;;;;;0.00;0.00;;;11.70;99.90;;;;;;5115783;28;20574;-65
2023/12/11 12:07:02;;;;;;;0.00;0.00;;;11.70;99.90;;;;;;5115812;28;20554;-66
2023/12/11 12:09:29;;;;;;;0.00;0.00;;;11.70;99.90;;;;;;5114612;28;20171;-66
2023/12/11 12:11:55;;;;;;;0.00;0.00;;;11.70;99.90;;;;;;5115797;28;20164;-66
2023/12/11 12:14:21;;;;;;;0.00;0.00;;;11.70;99.90;;;;;;5115649;28;20577;-66
2023/12/11 12:16:47;;;;;;;0.00;0.00;;;11.70;99.90;;;;;;5115853;28;20223;-66
2023/12/11 12:19:15;;;;;;;0.00;0.00;;;11.70;99.90;;;;;;5115467;28;20179;-67
2023/12/11 12:21:54;;;;;;;0.20;0.20;;;11.70;99.90;;;;;;5115636;28;20258;-67
2023/12/11 12:24:20;;;;;;;0.00;0.00;;;11.80;99.90;;;;;;5115672;28;20228;-67
2023/12/11 12:26:51;;;;;;;0.00;0.00;;;11.80;99.90;;;;;;5115521;28;20175;-66
2023/12/11 12:29:17;;;;;;;0.00;0.00;;;11.90;99.90;;;;;;5115715;27;20463;-66
2023/12/11 12:31:43;;;;;;;0.00;0.00;;;11.90;99.90;;;;;;5115364;28;20278;-67
2023/12/11 12:34:09;;;;;;;0.00;0.00;;;11.90;99.90;;;;;;5115342;28;20176;-66
2023/12/11 12:36:35;;;;;;;0.00;0.00;;;12.00;99.90;;;;;;5115030;28;20237;-66
2023/12/11 12:39:02;;;;;;;0.00;0.00;;;12.00;99.90;;;;;;5115248;28;20179;-67
2023/12/11 12:41:28;;;;;;;0.00;0.00;;;12.00;99.90;;;;;;5115358;28;20171;-67
2023/12/11 12:43:58;;;;;;;0.00;0.00;;;12.20;99.90;;;;;;5115050;28;20180;-66
2023/12/11 12:46:39;;;;;;;0.22;0.22;;;12.30;99.90;;;;;;5115203;28;20184;-66